createdAt,value
2023-08-24T00:00:08.352Z,76.10
2023-08-24T00:01:08.349Z,75.54
2023-08-24T00:02:08.330Z,76.87
2023-08-24T00:03:08.333Z,76.94
2023-08-24T00:04:08.300Z,77.37
2023-08-24T00:05:08.300Z,78.03
2023-08-24T00:06:08.278Z,77.73
2023-08-24T00:07:08.268Z,77.30
2023-08-24T00:08:08.248Z,77.37
2023-08-24T00:09:08.239Z,76.03
2023-08-24T00:10:08.220Z,73.86
2023-08-24T00:11:08.227Z,72.26
2023-08-24T00:12:08.217Z,70.01
2023-08-24T00:13:08.194Z,68.68
2023-08-24T00:14:08.166Z,66.27
2023-08-24T00:15:08.169Z,64.17
2023-08-24T00:16:08.214Z,62.39
2023-08-24T00:17:08.146Z,62.02
2023-08-24T00:18:08.183Z,60.70
2023-08-24T00:19:08.112Z,59.40
2023-08-24T00:20:08.093Z,57.39
2023-08-24T00:21:08.089Z,56.76
2023-08-24T00:22:08.073Z,57.39
2023-08-24T00:23:08.056Z,57.31
2023-08-24T00:24:08.063Z,57.19
2023-08-24T00:25:08.049Z,57.19
2023-08-24T00:26:08.018Z,57.55
2023-08-24T00:27:08.003Z,57.79
2023-08-24T00:28:07.984Z,58.07
2023-08-24T00:29:07.984Z,58.56
2023-08-24T00:30:08.017Z,59.49
2023-08-24T00:31:08.044Z,61.01
2023-08-24T00:32:07.936Z,62.91
2023-08-24T00:33:07.987Z,64.07
2023-08-24T00:34:07.933Z,65.38
2023-08-24T00:35:07.955Z,66.00
2023-08-24T00:36:07.978Z,63.88
2023-08-24T00:37:07.898Z,61.97
2023-08-24T00:38:07.906Z,60.66
2023-08-24T00:39:07.867Z,58.98
2023-08-24T00:40:07.872Z,60.00
2023-08-24T00:41:07.861Z,61.19
2023-08-24T00:42:07.825Z,63.34
2023-08-24T00:43:07.806Z,64.07
2023-08-24T00:44:07.796Z,63.97
2023-08-24T00:45:07.768Z,64.97
2023-08-24T00:46:07.780Z,66.16
2023-08-24T00:47:07.776Z,66.86
2023-08-24T00:48:07.788Z,66.43
2023-08-24T00:49:07.761Z,68.17
2023-08-24T00:50:07.703Z,69.36
2023-08-24T00:51:07.688Z,69.95
2023-08-24T00:52:07.689Z,69.95
2023-08-24T00:53:07.662Z,70.90
2023-08-24T00:54:07.677Z,71.33
2023-08-24T00:55:07.659Z,72.20
2023-08-24T00:56:07.615Z,71.45
2023-08-24T00:57:07.625Z,71.08
2023-08-24T00:58:07.594Z,69.71
2023-08-24T00:59:07.592Z,68.06
2023-08-24T01:00:07.579Z,64.12
2023-08-24T01:01:07.628Z,59.36
2023-08-24T01:02:07.605Z,56.30
2023-08-24T01:03:07.591Z,55.07
2023-08-24T01:04:07.533Z,55.18
2023-08-24T01:05:07.527Z,57.12
2023-08-24T01:06:07.497Z,58.94
2023-08-24T01:07:07.482Z,60.62
2023-08-24T01:08:07.468Z,61.10
2023-08-24T01:09:07.473Z,62.20
2023-08-24T01:10:07.475Z,62.91
2023-08-24T01:11:07.435Z,64.22
2023-08-24T01:12:07.408Z,63.97
2023-08-24T01:13:07.404Z,64.52
2023-08-24T01:14:07.384Z,63.83
2023-08-24T01:15:07.394Z,63.15
2023-08-24T01:16:07.356Z,62.91
2023-08-24T01:17:07.368Z,63.10
2023-08-24T01:18:07.388Z,64.82
2023-08-24T01:19:07.315Z,66.27
2023-08-24T01:20:07.378Z,66.69
2023-08-24T01:21:07.315Z,67.67
2023-08-24T01:22:07.275Z,67.62
2023-08-24T01:23:07.266Z,67.02
2023-08-24T01:24:07.286Z,67.73
2023-08-24T01:25:07.302Z,67.56
2023-08-24T01:26:07.226Z,68.68
2023-08-24T01:27:07.221Z,68.96
2023-08-24T01:28:07.217Z,68.90
2023-08-24T01:29:07.189Z,68.56
2023-08-24T01:30:07.177Z,68.34
2023-08-24T01:31:07.214Z,67.12
2023-08-24T01:32:07.142Z,66.75
2023-08-24T01:33:07.179Z,66.64
2023-08-24T01:34:07.125Z,66.06
2023-08-24T01:35:07.125Z,66.06
2023-08-24T01:36:07.109Z,65.69
2023-08-24T01:37:07.090Z,65.38
2023-08-24T01:38:07.064Z,66.06
2023-08-24T01:39:07.062Z,67.02
2023-08-24T01:40:07.049Z,68.45
2023-08-24T01:41:07.046Z,69.42
2023-08-24T01:42:07.030Z,69.89
2023-08-24T01:43:07.011Z,70.07
2023-08-24T01:44:07.003Z,70.72
2023-08-24T01:45:06.996Z,70.54
2023-08-24T01:46:07.044Z,70.18
2023-08-24T01:47:06.962Z,68.68
2023-08-24T01:48:07.039Z,66.80
2023-08-24T01:49:06.943Z,66.06
2023-08-24T01:50:06.936Z,65.23
2023-08-24T01:51:06.917Z,64.97
2023-08-24T01:52:06.904Z,64.92
2023-08-24T01:53:06.879Z,64.82
2023-08-24T01:54:06.862Z,64.67
2023-08-24T01:55:06.869Z,64.47
2023-08-24T01:56:06.845Z,64.07
2023-08-24T01:57:06.876Z,62.48
2023-08-24T01:58:06.817Z,61.33
2023-08-24T01:59:06.804Z,61.01
2023-08-24T02:00:06.791Z,62.06
2023-08-24T02:01:06.856Z,63.83
2023-08-24T02:02:06.757Z,64.62
2023-08-24T02:03:06.834Z,64.67
2023-08-24T02:04:06.742Z,64.02
2023-08-24T02:05:06.721Z,64.12
2023-08-24T02:06:06.721Z,64.32
2023-08-24T02:07:06.697Z,62.67
2023-08-24T02:08:06.679Z,60.84
2023-08-24T02:09:06.692Z,60.62
2023-08-24T02:10:06.688Z,60.70
2023-08-24T02:11:06.647Z,60.66
2023-08-24T02:12:06.627Z,60.09
2023-08-24T02:13:06.631Z,60.00
2023-08-24T02:14:06.609Z,59.74
2023-08-24T02:15:06.596Z,59.70
2023-08-24T02:16:06.773Z,59.19
2023-08-24T02:17:06.561Z,59.06
2023-08-24T02:18:06.575Z,58.56
2023-08-24T02:19:06.553Z,58.36
2023-08-24T02:20:06.532Z,57.83
2023-08-24T02:21:06.506Z,57.39
2023-08-24T02:22:06.516Z,56.88
2023-08-24T02:23:06.484Z,56.76
2023-08-24T02:24:06.490Z,57.23
2023-08-24T02:25:06.465Z,57.00
2023-08-24T02:26:06.472Z,56.65
2023-08-24T02:27:06.439Z,55.96
2023-08-24T02:28:06.418Z,56.15
2023-08-24T02:29:06.495Z,56.30
2023-08-24T02:30:06.385Z,56.08
2023-08-24T02:31:06.450Z,55.85
2023-08-24T02:32:06.409Z,55.85
2023-08-24T02:33:06.378Z,55.59
2023-08-24T02:34:06.344Z,55.92
2023-08-24T02:35:06.340Z,56.00
2023-08-24T02:36:06.318Z,55.78
2023-08-24T02:37:06.328Z,55.37
2023-08-24T02:38:06.286Z,54.96
2023-08-24T02:39:06.303Z,55.15
2023-08-24T02:40:06.282Z,55.18
2023-08-24T02:41:06.266Z,55.40
2023-08-24T02:42:06.250Z,55.37
2023-08-24T02:43:06.216Z,55.29
2023-08-24T02:44:06.219Z,55.44
2023-08-24T02:45:06.185Z,54.46
2023-08-24T02:46:06.196Z,52.20
2023-08-24T02:47:06.174Z,50.80
2023-08-24T02:48:06.254Z,49.65
2023-08-24T02:49:06.130Z,48.15
2023-08-24T02:50:06.160Z,47.01
2023-08-24T02:51:06.251Z,45.07
2023-08-24T02:52:06.091Z,42.76
2023-08-24T02:53:06.100Z,41.81
2023-08-24T02:54:06.052Z,41.27
2023-08-24T02:55:06.032Z,41.48
2023-08-24T02:56:06.039Z,41.81
2023-08-24T02:57:06.011Z,41.65
2023-08-24T02:58:06.008Z,40.63
2023-08-24T02:59:05.984Z,40.20
2023-08-24T03:00:05.983Z,40.28
2023-08-24T03:01:05.988Z,40.12
2023-08-24T03:02:05.951Z,39.97
2023-08-24T03:03:05.986Z,39.29
2023-08-24T03:04:05.956Z,39.10
2023-08-24T03:05:05.911Z,39.51
2023-08-24T03:06:05.886Z,39.17
2023-08-24T03:07:05.872Z,38.77
2023-08-24T03:08:05.895Z,38.88
2023-08-24T03:09:05.855Z,38.96
2023-08-24T03:10:05.862Z,38.56
2023-08-24T03:11:05.825Z,38.88
2023-08-24T03:12:05.814Z,38.92
2023-08-24T03:13:05.794Z,38.52
2023-08-24T03:14:05.789Z,38.34
2023-08-24T03:15:05.774Z,37.55
2023-08-24T03:16:05.772Z,37.45
2023-08-24T03:17:05.805Z,36.72
2023-08-24T03:18:05.741Z,36.21
2023-08-24T03:19:05.726Z,35.74
2023-08-24T03:20:05.720Z,35.05
2023-08-24T03:21:05.716Z,35.05
2023-08-24T03:22:05.688Z,34.73
2023-08-24T03:23:05.677Z,34.38
2023-08-24T03:24:05.654Z,34.04
2023-08-24T03:25:05.642Z,33.85
2023-08-24T03:26:05.634Z,33.91
2023-08-24T03:27:05.622Z,34.24
2023-08-24T03:28:05.599Z,34.19
2023-08-24T03:29:05.598Z,34.10
2023-08-24T03:30:05.591Z,34.16
2023-08-24T03:31:05.625Z,33.80
2023-08-24T03:32:05.545Z,33.91
2023-08-24T03:33:05.618Z,33.66
2023-08-24T03:34:05.524Z,33.74
2023-08-24T03:35:05.515Z,33.71
2023-08-24T03:36:05.510Z,34.27
2023-08-24T03:37:05.492Z,34.55
2023-08-24T03:38:05.466Z,34.61
2023-08-24T03:39:05.471Z,34.35
2023-08-24T03:40:05.438Z,33.91
2023-08-24T03:41:05.439Z,33.55
2023-08-24T03:42:05.407Z,33.44
2023-08-24T03:43:05.404Z,33.58
2023-08-24T03:44:05.384Z,33.39
2023-08-24T03:45:05.371Z,33.58
2023-08-24T03:46:05.580Z,33.47
2023-08-24T03:47:11.371Z,33.15
2023-08-24T03:48:05.370Z,32.73
2023-08-24T03:49:06.984Z,32.63
2023-08-24T03:50:05.379Z,32.35
2023-08-24T03:51:05.288Z,32.40
2023-08-24T03:52:05.280Z,32.55
2023-08-24T03:53:05.272Z,32.58
2023-08-24T03:54:05.276Z,32.63
2023-08-24T03:55:05.267Z,32.76
2023-08-24T03:56:05.215Z,33.20
2023-08-24T03:57:05.203Z,32.50
2023-08-24T03:58:05.231Z,32.58
2023-08-24T03:59:05.181Z,32.58
2023-08-24T04:00:05.196Z,32.48
2023-08-24T04:01:05.172Z,31.76
2023-08-24T04:02:05.144Z,31.30
2023-08-24T04:03:05.190Z,30.89
2023-08-24T04:04:05.204Z,30.75
2023-08-24T04:05:05.144Z,30.57
2023-08-24T04:06:05.106Z,30.70
2023-08-24T04:07:05.084Z,30.93
2023-08-24T04:08:05.089Z,30.52
2023-08-24T04:09:05.161Z,29.97
2023-08-24T04:10:05.076Z,29.87
2023-08-24T04:11:05.049Z,30.02
2023-08-24T04:12:05.712Z,29.63
2023-08-24T04:13:05.161Z,29.30
2023-08-24T04:14:05.080Z,29.26
2023-08-24T04:15:05.012Z,28.38
2023-08-24T04:16:05.180Z,28.09
2023-08-24T04:17:04.983Z,27.70
2023-08-24T04:18:05.055Z,27.64
2023-08-24T04:19:04.942Z,27.53
2023-08-24T04:20:04.941Z,27.64
2023-08-24T04:21:04.973Z,27.79
2023-08-24T04:22:04.908Z,27.94
2023-08-24T04:23:07.498Z,28.02
2023-08-24T04:24:04.912Z,28.21
2023-08-24T04:25:04.891Z,28.23
2023-08-24T04:26:04.846Z,28.03
2023-08-24T04:27:04.821Z,27.66
2023-08-24T04:28:04.844Z,27.39
2023-08-24T04:29:04.825Z,27.32
2023-08-24T04:30:04.792Z,27.10
2023-08-24T04:31:04.855Z,26.94
2023-08-24T04:32:04.813Z,26.67
2023-08-24T04:33:04.783Z,26.55
2023-08-24T04:34:04.747Z,26.58
2023-08-24T04:35:04.729Z,26.47
2023-08-24T04:36:04.737Z,26.40
2023-08-24T04:37:04.718Z,26.89
2023-08-24T04:38:04.704Z,27.39
2023-08-24T04:39:04.755Z,27.64
2023-08-24T04:40:04.648Z,28.17
2023-08-24T04:41:04.657Z,28.57
2023-08-24T04:42:04.664Z,29.11
2023-08-24T04:43:04.622Z,29.97
2023-08-24T04:44:04.613Z,30.61
2023-08-24T04:45:04.684Z,31.45
2023-08-24T04:46:04.617Z,32.08
2023-08-24T04:47:04.566Z,32.73
2023-08-24T04:48:04.714Z,33.20
2023-08-24T04:49:04.705Z,33.80
2023-08-24T04:50:04.704Z,33.85
2023-08-24T04:51:04.538Z,33.66
2023-08-24T04:52:04.563Z,32.58
2023-08-24T04:53:04.481Z,31.07
2023-08-24T04:54:04.477Z,29.95
2023-08-24T04:55:04.486Z,28.79
2023-08-24T04:56:04.454Z,27.70
2023-08-24T04:57:04.480Z,26.98
2023-08-24T04:58:04.447Z,26.23
2023-08-24T04:59:04.434Z,25.54
2023-08-24T05:00:04.392Z,25.06
2023-08-24T05:01:04.420Z,24.46
2023-08-24T05:02:05.061Z,24.05
2023-08-24T05:03:04.406Z,23.76
2023-08-24T05:04:04.346Z,23.64
2023-08-24T05:05:04.332Z,23.48
2023-08-24T05:06:04.331Z,23.45
2023-08-24T05:07:04.334Z,23.40
2023-08-24T05:08:04.290Z,23.17
2023-08-24T05:09:04.342Z,22.86
2023-08-24T05:10:04.261Z,22.76
2023-08-24T05:11:04.254Z,22.64
2023-08-24T05:12:04.262Z,22.71
2023-08-24T05:13:04.274Z,22.79
2023-08-24T05:14:04.259Z,22.86
2023-08-24T05:15:04.207Z,22.94
2023-08-24T05:16:04.233Z,23.01
2023-08-24T05:17:04.212Z,23.09
2023-08-24T05:18:04.199Z,23.04
2023-08-24T05:19:04.152Z,23.11
2023-08-24T05:20:04.132Z,23.27
2023-08-24T05:21:04.110Z,23.53
2023-08-24T05:22:04.100Z,23.35
2023-08-24T05:23:04.114Z,23.17
2023-08-24T05:24:04.111Z,23.04
2023-08-24T05:25:04.197Z,23.01
2023-08-24T05:26:04.059Z,22.89
2023-08-24T05:27:04.036Z,22.86
2023-08-24T05:28:04.026Z,22.81
2023-08-24T05:29:04.004Z,22.84
2023-08-24T05:30:04.037Z,22.96
2023-08-24T05:31:05.736Z,22.86
2023-08-24T05:32:04.194Z,22.71
2023-08-24T05:33:04.146Z,22.51
2023-08-24T05:34:04.043Z,22.42
2023-08-24T05:35:03.994Z,22.32
2023-08-24T05:36:03.954Z,22.30
2023-08-24T05:37:03.942Z,22.30
2023-08-24T05:38:03.990Z,22.39
2023-08-24T05:39:06.518Z,22.59
2023-08-24T05:40:05.285Z,22.84
2023-08-24T05:41:03.869Z,23.06
2023-08-24T05:42:03.863Z,23.22
2023-08-24T05:43:03.871Z,23.45
2023-08-24T05:44:03.856Z,23.67
2023-08-24T05:45:03.808Z,23.84
2023-08-24T05:46:03.840Z,24.06
2023-08-24T05:47:03.784Z,24.22
2023-08-24T05:48:03.818Z,24.20
2023-08-24T05:49:03.755Z,24.16
2023-08-24T05:50:03.736Z,23.99
2023-08-24T05:51:03.729Z,24.01
2023-08-24T05:52:03.706Z,24.06
2023-08-24T05:53:03.703Z,23.98
2023-08-24T05:54:03.710Z,24.06
2023-08-24T05:55:03.729Z,23.90
2023-08-24T05:56:03.660Z,24.03
2023-08-24T05:57:03.652Z,24.23
2023-08-24T05:58:03.640Z,24.16
2023-08-24T05:59:06.176Z,24.16
2023-08-24T06:00:03.621Z,24.23
2023-08-24T06:01:03.602Z,24.17
2023-08-24T06:02:03.629Z,24.85
2023-08-24T06:03:03.582Z,25.05
2023-08-24T06:04:03.634Z,25.17
2023-08-24T06:05:03.565Z,25.11
2023-08-24T06:06:03.536Z,25.31
2023-08-24T06:07:03.524Z,25.60
2023-08-24T06:08:03.520Z,26.03
2023-08-24T06:09:03.495Z,26.17
2023-08-24T06:10:03.499Z,26.69
2023-08-24T06:11:03.490Z,27.03
2023-08-24T06:12:03.466Z,27.53
2023-08-24T06:13:03.458Z,28.03
2023-08-24T06:14:03.436Z,28.67
2023-08-24T06:15:03.441Z,29.17
2023-08-24T06:16:03.442Z,29.46
2023-08-24T06:17:03.397Z,30.08
2023-08-24T06:18:03.412Z,30.41
2023-08-24T06:19:03.393Z,30.50
2023-08-24T06:20:03.383Z,30.84
2023-08-24T06:21:03.375Z,31.33
2023-08-24T06:22:03.330Z,31.02
2023-08-24T06:23:03.334Z,30.98
2023-08-24T06:24:03.338Z,31.52
2023-08-24T06:25:03.305Z,31.40
2023-08-24T06:26:03.294Z,31.54
2023-08-24T06:27:03.269Z,31.81
2023-08-24T06:28:03.271Z,32.15
2023-08-24T06:29:03.242Z,32.63
2023-08-24T06:30:03.259Z,32.84
2023-08-24T06:31:03.226Z,33.18
2023-08-24T06:32:03.230Z,33.85
2023-08-24T06:33:03.226Z,34.38
2023-08-24T06:34:03.184Z,33.39
2023-08-24T06:35:03.543Z,33.04
2023-08-24T06:36:03.346Z,32.89
2023-08-24T06:37:03.237Z,33.26
2023-08-24T06:38:03.246Z,34.64
2023-08-24T06:39:03.231Z,34.76
2023-08-24T06:40:03.584Z,34.99
2023-08-24T06:41:03.103Z,36.43
2023-08-24T06:42:03.108Z,37.25
2023-08-24T06:43:03.146Z,38.06
2023-08-24T06:44:03.086Z,38.17
2023-08-24T06:45:03.059Z,38.49
2023-08-24T06:46:03.140Z,39.03
2023-08-24T06:47:05.573Z,40.20
2023-08-24T06:48:03.020Z,41.40
2023-08-24T06:49:03.009Z,41.77
2023-08-24T06:50:03.034Z,41.77
2023-08-24T06:51:02.998Z,42.02
2023-08-24T06:52:02.997Z,42.67
2023-08-24T06:53:03.175Z,42.98
2023-08-24T06:54:02.945Z,44.50
2023-08-24T06:55:02.938Z,45.57
2023-08-24T06:56:02.924Z,46.49
2023-08-24T06:57:02.939Z,46.80
2023-08-24T06:58:03.010Z,47.98
2023-08-24T06:59:09.649Z,48.94
2023-08-24T07:00:02.979Z,49.67
2023-08-24T07:01:03.148Z,49.73
2023-08-24T07:02:02.877Z,49.15
2023-08-24T07:03:02.856Z,50.22
2023-08-24T07:04:02.815Z,50.61
2023-08-24T07:05:02.810Z,50.80
2023-08-24T07:06:02.815Z,50.09
2023-08-24T07:07:02.805Z,50.74
2023-08-24T07:08:02.751Z,52.43
2023-08-24T07:09:02.734Z,52.73
2023-08-24T07:10:02.739Z,52.04
2023-08-24T07:11:02.722Z,52.80
2023-08-24T07:12:02.709Z,53.55
2023-08-24T07:13:02.713Z,53.41
2023-08-24T07:14:02.711Z,54.82
2023-08-24T07:15:02.658Z,56.46
2023-08-24T07:16:02.752Z,55.44
2023-08-24T07:17:02.628Z,56.69
2023-08-24T07:18:02.694Z,56.96
2023-08-24T07:19:02.653Z,59.23
2023-08-24T07:20:02.612Z,58.85
2023-08-24T07:21:02.597Z,59.53
2023-08-24T07:22:02.609Z,60.44
2023-08-24T07:23:02.544Z,60.66
2023-08-24T07:24:02.548Z,60.09
2023-08-24T07:25:04.785Z,57.79
2023-08-24T07:26:02.543Z,54.67
2023-08-24T07:27:02.510Z,54.46
2023-08-24T07:28:02.520Z,54.89
2023-08-24T07:29:02.489Z,54.89
2023-08-24T07:30:02.541Z,56.61
2023-08-24T07:31:02.554Z,57.59
2023-08-24T07:32:02.569Z,55.18
2023-08-24T07:33:02.624Z,54.10
2023-08-24T07:34:02.428Z,54.64
2023-08-24T07:35:02.408Z,55.22
2023-08-24T07:36:02.448Z,51.78
2023-08-24T07:37:02.384Z,47.35
2023-08-24T07:38:02.367Z,47.90
2023-08-24T07:39:02.367Z,50.03
2023-08-24T07:40:02.338Z,51.55
2023-08-24T07:41:02.335Z,52.97
2023-08-24T07:42:02.343Z,50.43
2023-08-24T07:43:02.317Z,48.12
2023-08-24T07:44:02.309Z,48.92
2023-08-24T07:45:02.279Z,49.29
2023-08-24T07:46:02.454Z,49.00
2023-08-24T07:47:02.268Z,47.25
2023-08-24T07:48:02.385Z,45.12
2023-08-24T07:49:02.224Z,45.82
2023-08-24T07:50:02.242Z,46.75
2023-08-24T07:51:02.201Z,45.52
2023-08-24T07:52:02.202Z,42.54
2023-08-24T07:53:02.223Z,42.63
2023-08-24T07:54:02.163Z,42.24
2023-08-24T07:55:02.168Z,42.76
2023-08-24T07:56:02.151Z,43.47
2023-08-24T07:57:02.151Z,43.47
2023-08-24T07:58:02.157Z,43.93
2023-08-24T07:59:02.125Z,44.59
2023-08-24T08:00:02.092Z,42.85
2023-08-24T08:01:02.086Z,43.47
2023-08-24T08:02:02.137Z,44.26
2023-08-24T08:03:03.263Z,45.82
2023-08-24T08:04:02.079Z,47.87
2023-08-24T08:05:02.045Z,46.98
2023-08-24T08:06:02.027Z,48.51
2023-08-24T08:07:02.000Z,50.31
2023-08-24T08:08:02.015Z,52.37
2023-08-24T08:09:02.012Z,51.68
2023-08-24T08:10:01.989Z,53.34
2023-08-24T08:11:01.965Z,56.23
2023-08-24T08:12:01.936Z,56.84
2023-08-24T08:13:01.929Z,60.22
2023-08-24T08:14:01.911Z,61.69
2023-08-24T08:15:01.903Z,62.29
2023-08-24T08:16:01.964Z,64.97
2023-08-24T08:17:01.870Z,63.44
2023-08-24T08:18:01.945Z,61.60
2023-08-24T08:19:01.869Z,59.53
2023-08-24T08:20:01.849Z,61.28
2023-08-24T08:21:01.821Z,65.02
2023-08-24T08:22:01.816Z,70.66
2023-08-24T08:23:01.807Z,69.95
2023-08-24T08:24:01.810Z,66.80
2023-08-24T08:25:01.770Z,67.78
2023-08-24T08:26:01.775Z,65.80
2023-08-24T08:27:01.761Z,66.37
2023-08-24T08:28:01.735Z,67.45
2023-08-24T08:29:01.748Z,72.13
2023-08-24T08:30:01.720Z,75.61
2023-08-24T08:31:01.748Z,76.24
2023-08-24T08:32:01.879Z,76.87
2023-08-24T08:33:01.713Z,77.95
2023-08-24T08:34:01.690Z,81.39
2023-08-24T08:35:01.642Z,82.11
2023-08-24T08:36:01.642Z,79.44
2023-08-24T08:37:01.616Z,76.03
2023-08-24T08:38:01.607Z,71.33
2023-08-24T08:39:01.597Z,67.78
2023-08-24T08:40:01.643Z,70.66
2023-08-24T08:41:01.567Z,71.64
2023-08-24T08:42:01.551Z,72.89
2023-08-24T08:43:01.552Z,73.67
2023-08-24T08:44:01.531Z,72.13
2023-08-24T08:45:01.532Z,74.00
2023-08-24T08:46:01.661Z,70.36
2023-08-24T08:47:01.514Z,68.85
2023-08-24T08:48:01.505Z,70.07
2023-08-24T08:49:01.469Z,73.54
2023-08-24T08:50:01.447Z,72.45
2023-08-24T08:51:01.427Z,65.95
2023-08-24T08:52:01.418Z,66.06
2023-08-24T08:53:01.417Z,71.39
2023-08-24T08:54:01.411Z,73.80
2023-08-24T08:55:01.376Z,78.32
2023-08-24T08:56:01.371Z,82.19
2023-08-24T08:57:01.355Z,88.11
2023-08-24T08:58:01.330Z,92.12
2023-08-24T08:59:01.379Z,93.57
2023-08-24T09:00:01.310Z,93.99
2023-08-24T09:01:01.337Z,95.88
2023-08-24T09:02:01.291Z,94.53
2023-08-24T09:03:01.374Z,95.29
2023-08-24T09:04:01.301Z,96.06
2023-08-24T09:05:01.324Z,95.62
2023-08-24T09:06:01.237Z,94.53
2023-08-24T09:07:01.227Z,93.78
2023-08-24T09:08:01.221Z,93.05
2023-08-24T09:09:01.208Z,95.84
2023-08-24T09:10:01.193Z,101.00
2023-08-24T09:11:01.211Z,101.93
2023-08-24T09:12:01.168Z,101.74
2023-08-24T09:13:01.161Z,102.50
2023-08-24T09:14:01.192Z,104.69
2023-08-24T09:15:01.177Z,103.32
2023-08-24T09:16:01.187Z,100.64
2023-08-24T09:17:01.133Z,106.23
2023-08-24T09:18:01.120Z,105.82
2023-08-24T09:19:01.069Z,101.62
2023-08-24T09:20:01.096Z,94.78
2023-08-24T09:21:01.045Z,93.57
2023-08-24T09:22:01.030Z,95.62
2023-08-24T09:23:01.015Z,98.08
2023-08-24T09:24:01.021Z,98.49
2023-08-24T09:25:01.020Z,99.08
2023-08-24T09:26:01.046Z,105.15
2023-08-24T09:27:00.972Z,107.54
2023-08-24T09:28:00.946Z,109.52
2023-08-24T09:29:00.944Z,112.56
2023-08-24T09:30:00.944Z,116.67
2023-08-24T09:31:00.943Z,116.67
2023-08-24T09:32:00.915Z,106.03
2023-08-24T09:33:00.906Z,95.71
2023-08-24T09:34:00.934Z,102.31
2023-08-24T09:35:00.866Z,105.09
2023-08-24T09:36:00.848Z,107.33
2023-08-24T09:37:00.828Z,105.76
2023-08-24T09:38:00.881Z,110.98
2023-08-24T09:39:00.821Z,110.54
2023-08-24T09:40:00.793Z,118.24
2023-08-24T09:41:00.781Z,119.43
2023-08-24T09:42:00.763Z,115.77
2023-08-24T09:43:00.748Z,122.69
2023-08-24T09:44:00.738Z,121.53
2023-08-24T09:45:00.772Z,116.34
2023-08-24T09:46:00.718Z,116.58
2023-08-24T09:47:57.014Z,95.11
2023-08-24T09:48:57.882Z,101.99
2023-08-24T09:49:57.877Z,107.05
2023-08-24T09:50:57.896Z,117.49
2023-08-24T09:51:57.863Z,120.73
2023-08-24T09:52:57.857Z,127.10
2023-08-24T09:53:57.815Z,128.48
2023-08-24T09:54:57.818Z,133.53
2023-08-24T09:55:57.794Z,140.53
2023-08-24T09:56:57.774Z,143.81
2023-08-24T09:57:57.764Z,147.78
2023-08-24T09:58:57.772Z,146.73
2023-08-24T09:59:57.768Z,150.45
2023-08-24T10:00:57.712Z,152.24
2023-08-24T10:01:57.753Z,149.91
2023-08-24T10:02:57.981Z,147.78
2023-08-24T10:03:57.759Z,148.57
2023-08-24T10:04:57.714Z,141.73
2023-08-24T10:06:00.839Z,132.36
2023-08-24T10:06:57.636Z,131.11
2023-08-24T10:07:57.648Z,130.19
2023-08-24T10:08:57.616Z,131.94
2023-08-24T10:09:57.618Z,126.81
2023-08-24T10:10:57.605Z,121.44
2023-08-24T10:11:57.595Z,116.34
2023-08-24T10:12:57.558Z,106.36
2023-08-24T10:13:57.545Z,104.30
2023-08-24T10:14:57.535Z,114.42
2023-08-24T10:15:57.573Z,119.09
2023-08-24T10:16:57.518Z,118.58
2023-08-24T10:17:57.544Z,120.64
2023-08-24T10:18:57.470Z,121.88
2023-08-24T10:19:57.477Z,126.23
2023-08-24T10:20:57.487Z,128.28
2023-08-24T10:21:57.450Z,123.42
2023-08-24T10:22:57.416Z,128.78
2023-08-24T10:23:57.414Z,130.70
2023-08-24T10:24:57.400Z,128.28
2023-08-24T10:25:57.411Z,117.74
2023-08-24T10:26:57.386Z,113.87
2023-08-24T10:27:57.389Z,119.00
2023-08-24T10:28:57.364Z,123.79
2023-08-24T10:29:57.339Z,120.73
2023-08-24T10:30:57.328Z,121.26
2023-08-24T10:31:57.393Z,129.48
2023-08-24T10:32:57.453Z,141.25
2023-08-24T10:33:57.288Z,146.35
2023-08-24T10:34:57.269Z,155.23
2023-08-24T10:35:57.257Z,158.03
2023-08-24T10:36:57.276Z,146.60
2023-08-24T10:37:57.231Z,139.71
2023-08-24T10:38:57.216Z,147.25
2023-08-24T10:39:57.204Z,149.64
2023-08-24T10:40:57.188Z,151.69
2023-08-24T10:41:57.227Z,151.27
2023-08-24T10:42:57.165Z,154.08
2023-08-24T10:43:57.165Z,151.41
2023-08-24T10:44:57.167Z,143.44
2023-08-24T10:45:57.250Z,143.81
2023-08-24T10:46:57.131Z,151.83
2023-08-24T10:47:57.114Z,159.09
2023-08-24T10:48:57.101Z,161.56
2023-08-24T10:49:57.164Z,163.95
2023-08-24T10:50:57.059Z,164.77
2023-08-24T10:51:57.078Z,167.42
2023-08-24T10:52:57.026Z,163.15
2023-08-24T10:53:57.041Z,164.28
2023-08-24T10:54:57.041Z,148.57
2023-08-24T10:55:56.993Z,136.27
2023-08-24T10:56:56.984Z,145.96
2023-08-24T10:57:56.970Z,146.48
2023-08-24T10:58:56.960Z,152.66
2023-08-24T10:59:56.941Z,146.73
2023-08-24T11:00:56.994Z,150.59
2023-08-24T11:01:56.934Z,158.18
2023-08-24T11:03:00.564Z,161.25
2023-08-24T11:03:56.964Z,168.95
2023-08-24T11:04:56.903Z,166.25
2023-08-24T11:05:56.929Z,156.69
2023-08-24T11:06:56.876Z,159.55
2023-08-24T11:07:56.841Z,164.44
2023-08-24T11:08:56.840Z,172.82
2023-08-24T11:09:56.835Z,176.67
2023-08-24T11:10:56.809Z,178.00
2023-08-24T11:11:56.803Z,188.77
2023-08-24T11:12:56.778Z,188.77
2023-08-24T11:13:56.757Z,173.00
2023-08-24T11:14:56.750Z,160.94
2023-08-24T11:15:56.759Z,153.51
2023-08-24T11:16:56.735Z,159.55
2023-08-24T11:17:56.764Z,154.94
2023-08-24T11:18:56.695Z,169.64
2023-08-24T11:19:56.696Z,172.10
2023-08-24T11:20:56.685Z,165.26
2023-08-24T11:21:56.681Z,168.44
2023-08-24T11:22:56.646Z,160.78
2023-08-24T11:23:56.644Z,171.57
2023-08-24T11:24:56.616Z,172.46
2023-08-24T11:25:56.603Z,169.82
2023-08-24T11:26:56.620Z,166.75
2023-08-24T11:27:56.613Z,172.82
2023-08-24T11:28:56.576Z,175.74
2023-08-24T11:29:56.571Z,165.59
2023-08-24T11:30:56.639Z,168.78
2023-08-24T11:31:56.554Z,164.44
2023-08-24T11:32:56.530Z,159.40
2023-08-24T11:33:56.504Z,171.92
2023-08-24T11:34:56.499Z,183.70
2023-08-24T11:35:56.544Z,197.55
2023-08-24T11:36:56.453Z,213.14
2023-08-24T11:37:56.467Z,196.60
2023-08-24T11:38:56.448Z,190.64
2023-08-24T11:39:56.439Z,190.86
2023-08-24T11:40:56.399Z,187.04
2023-08-24T11:41:56.396Z,186.61
2023-08-24T11:42:56.454Z,184.72
2023-08-24T11:43:57.949Z,174.27
2023-08-24T11:44:56.373Z,171.57
2023-08-24T11:45:56.360Z,184.11
2023-08-24T11:46:56.355Z,189.64
2023-08-24T11:47:56.383Z,194.15
2023-08-24T11:48:56.309Z,180.12
2023-08-24T11:49:56.301Z,185.13
2023-08-24T11:50:56.288Z,192.66
2023-08-24T11:51:56.265Z,192.43
2023-08-24T11:52:56.269Z,189.75
2023-08-24T11:53:56.232Z,178.38
2023-08-24T11:54:56.221Z,176.86
2023-08-24T11:56:05.753Z,176.67
2023-08-24T11:56:56.203Z,162.20
2023-08-24T11:57:56.232Z,160.47
2023-08-24T11:58:56.207Z,163.15
2023-08-24T11:59:56.171Z,174.27
2023-08-24T12:00:56.177Z,181.30
2023-08-24T12:01:56.145Z,177.81
2023-08-24T12:02:56.215Z,191.76
2023-08-24T12:03:56.196Z,209.85
2023-08-24T12:04:56.099Z,208.51
2023-08-24T12:05:56.107Z,202.07
2023-08-24T12:06:56.074Z,187.25
2023-08-24T12:07:56.131Z,176.49
2023-08-24T12:08:56.065Z,184.82
2023-08-24T12:09:56.039Z,209.31
2023-08-24T12:10:56.024Z,217.24
2023-08-24T12:11:56.013Z,213.14
2023-08-24T12:12:56.003Z,226.89
2023-08-24T12:13:55.999Z,243.64
2023-08-24T12:14:55.965Z,241.83
2023-08-24T12:15:55.967Z,217.97
2023-08-24T12:16:55.968Z,236.75
2023-08-24T12:17:55.957Z,245.46
2023-08-24T12:18:55.925Z,216.52
2023-08-24T12:19:55.925Z,168.61
2023-08-24T12:20:55.906Z,172.28
2023-08-24T12:21:55.919Z,187.90
2023-08-24T12:22:55.867Z,193.69
2023-08-24T12:23:55.869Z,194.49
2023-08-24T12:24:55.849Z,177.43
2023-08-24T12:25:55.835Z,166.42
2023-08-24T12:26:55.809Z,185.97
2023-08-24T12:27:55.813Z,200.58
2023-08-24T12:28:55.848Z,196.84
2023-08-24T12:29:55.814Z,211.48
2023-08-24T12:30:55.854Z,224.09
2023-08-24T12:31:55.761Z,202.19
2023-08-24T12:32:55.983Z,195.19
2023-08-24T12:33:55.751Z,203.83
2023-08-24T12:34:55.830Z,217.97
2023-08-24T12:35:55.736Z,225.18
2023-08-24T12:36:56.381Z,226.89
2023-08-24T12:37:55.670Z,213.00
2023-08-24T12:38:55.680Z,203.32
2023-08-24T12:39:55.676Z,200.70
2023-08-24T12:40:55.656Z,190.53
2023-08-24T12:41:55.621Z,178.57
2023-08-24T12:42:55.655Z,198.63
2023-08-24T12:43:55.672Z,209.45
2023-08-24T12:44:55.597Z,212.44
2023-08-24T12:45:55.571Z,223.02